createdAt,value
2022-12-05T00:00:06.811Z,5.76
2022-12-05T00:02:34.839Z,5.62
2022-12-05T00:05:02.540Z,5.67
2022-12-05T00:07:30.218Z,5.70
2022-12-05T00:09:58.321Z,5.85
2022-12-05T00:12:26.058Z,5.96
2022-12-05T00:14:53.706Z,5.95
2022-12-05T00:17:21.266Z,5.82
2022-12-05T00:19:53.586Z,5.85
2022-12-05T00:22:24.184Z,5.83
2022-12-05T00:24:51.971Z,6.04
2022-12-05T00:27:19.587Z,5.72
2022-12-05T00:29:47.154Z,5.75
2022-12-05T00:32:14.910Z,5.59
2022-12-05T00:34:42.531Z,5.65
2022-12-05T00:37:10.102Z,5.53
2022-12-05T00:39:37.794Z,5.26
2022-12-05T00:42:05.442Z,5.29
2022-12-05T00:44:33.146Z,5.46
2022-12-05T00:47:00.739Z,5.48
2022-12-05T00:49:28.335Z,5.31
2022-12-05T00:51:56.063Z,5.44
2022-12-05T00:54:30.155Z,5.45
2022-12-05T00:56:57.687Z,5.06
2022-12-05T00:59:25.346Z,5.23
2022-12-05T01:01:53.151Z,5.10
2022-12-05T01:04:24.452Z,5.01
2022-12-05T01:06:56.496Z,5.08
2022-12-05T01:09:25.027Z,5.02
2022-12-05T01:11:53.402Z,5.04
2022-12-05T01:14:23.900Z,5.07
2022-12-05T01:16:55.814Z,5.40
2022-12-05T01:19:27.480Z,4.38
2022-12-05T01:21:56.530Z,5.08
2022-12-05T01:24:26.090Z,5.24
2022-12-05T01:26:54.625Z,5.19
2022-12-05T01:29:24.652Z,5.34
2022-12-05T01:31:52.818Z,5.24
2022-12-05T01:34:29.784Z,5.30
2022-12-05T01:36:57.349Z,5.44
2022-12-05T01:39:24.894Z,5.66
2022-12-05T01:41:52.452Z,5.47
2022-12-05T01:44:22.823Z,5.58
2022-12-05T01:46:52.831Z,5.68
2022-12-05T01:49:37.108Z,5.86
2022-12-05T01:52:10.982Z,5.59
2022-12-05T01:54:39.118Z,5.52
2022-12-05T01:57:11.077Z,5.07
2022-12-05T01:59:48.313Z,5.03
2022-12-05T02:02:16.598Z,5.46
2022-12-05T02:05:00.892Z,4.79
2022-12-05T02:07:30.728Z,5.11
2022-12-05T02:09:59.137Z,5.08
2022-12-05T02:12:27.465Z,4.96
2022-12-05T02:15:21.211Z,4.99
2022-12-05T02:18:15.850Z,4.53
2022-12-05T02:21:33.547Z,5.15
2022-12-05T02:24:37.356Z,4.74
2022-12-05T02:27:31.954Z,4.60
2022-12-05T02:30:21.535Z,4.67
2022-12-05T02:33:00.834Z,4.90
2022-12-05T02:35:42.198Z,5.16
2022-12-05T02:38:38.670Z,5.32
2022-12-05T02:41:35.095Z,5.43
2022-12-05T02:44:27.036Z,5.63
2022-12-05T02:46:56.050Z,5.52
2022-12-05T02:49:31.039Z,4.74
2022-12-05T02:52:00.739Z,4.89
2022-12-05T02:54:35.376Z,4.78
2022-12-05T02:57:04.642Z,4.71
2022-12-05T02:59:32.275Z,4.90
2022-12-05T03:02:00.116Z,5.20
2022-12-05T03:04:30.355Z,5.30
2022-12-05T03:07:06.928Z,5.49
2022-12-05T03:09:41.438Z,5.67
2022-12-05T03:12:38.585Z,5.92
2022-12-05T03:15:24.532Z,6.06
2022-12-05T03:18:08.527Z,6.03
2022-12-05T03:21:02.516Z,6.17
2022-12-05T03:23:46.140Z,6.18
2022-12-05T03:26:26.428Z,6.26
2022-12-05T03:29:06.651Z,6.38
2022-12-05T03:31:45.248Z,6.44
2022-12-05T03:34:23.188Z,6.49
2022-12-05T03:36:52.935Z,6.57
2022-12-05T03:39:30.663Z,6.56
2022-12-05T03:42:18.188Z,6.36
2022-12-05T03:44:59.933Z,6.18
2022-12-05T03:47:46.828Z,6.21
2022-12-05T03:50:30.048Z,6.28
2022-12-05T03:53:20.437Z,6.36
2022-12-05T03:56:18.280Z,6.12
2022-12-05T03:59:26.142Z,6.03
2022-12-05T04:01:56.313Z,6.16
2022-12-05T04:04:40.688Z,6.38
2022-12-05T04:07:10.626Z,6.42
2022-12-05T04:09:50.764Z,6.42
2022-12-05T04:12:27.561Z,6.60
2022-12-05T04:15:12.560Z,6.71
2022-12-05T04:17:57.565Z,6.83
2022-12-05T04:20:53.811Z,6.80
2022-12-05T04:23:22.120Z,6.46
2022-12-05T04:26:13.559Z,6.36
2022-12-05T04:29:09.325Z,6.40
2022-12-05T04:31:49.430Z,6.56
2022-12-05T04:34:50.974Z,6.25
2022-12-05T04:37:23.605Z,6.17
2022-12-05T04:40:14.021Z,5.82
2022-12-05T04:42:48.013Z,6.09
2022-12-05T04:45:34.351Z,6.20
2022-12-05T04:48:29.275Z,6.40
2022-12-05T04:51:51.404Z,6.29
2022-12-05T04:55:11.300Z,6.46
2022-12-05T04:58:27.737Z,6.57
2022-12-05T05:01:31.135Z,6.65
2022-12-05T05:04:57.326Z,6.68
2022-12-05T05:07:31.659Z,6.66
2022-12-05T05:10:48.238Z,6.66
2022-12-05T05:14:06.587Z,6.09
2022-12-05T05:20:24.070Z,6.32
2022-12-05T05:23:12.204Z,5.99
2022-12-05T05:26:17.056Z,5.87
2022-12-05T05:28:52.790Z,6.06
2022-12-05T05:31:29.306Z,6.22
2022-12-05T05:34:35.342Z,6.24
2022-12-05T05:37:41.816Z,6.16
2022-12-05T05:40:45.974Z,6.16
2022-12-05T05:43:45.435Z,6.16
2022-12-05T05:47:01.907Z,6.38
2022-12-05T05:49:49.582Z,6.39
2022-12-05T05:52:37.004Z,6.52
2022-12-05T05:55:39.154Z,6.49
2022-12-05T05:58:36.359Z,6.64
2022-12-05T06:01:26.775Z,6.73
2022-12-05T06:04:08.025Z,6.72
2022-12-05T06:07:02.160Z,6.63
2022-12-05T06:11:24.971Z,6.60
2022-12-05T06:13:11.183Z,6.52
2022-12-05T06:16:19.372Z,6.63
2022-12-05T06:19:06.507Z,6.59
2022-12-05T06:21:48.554Z,6.65
2022-12-05T06:24:35.860Z,6.65
2022-12-05T06:27:37.029Z,6.74
2022-12-05T06:30:08.880Z,6.23
2022-12-05T06:32:42.295Z,5.31
2022-12-05T06:35:21.401Z,5.66
2022-12-05T06:38:10.332Z,5.41
2022-12-05T06:40:51.739Z,5.41
2022-12-05T06:43:24.845Z,5.46
2022-12-05T06:46:36.898Z,5.88
2022-12-05T06:49:15.969Z,6.11
2022-12-05T06:51:57.965Z,6.17
2022-12-05T06:54:35.973Z,6.06
2022-12-05T06:57:16.400Z,6.35
2022-12-05T07:00:15.848Z,6.53
2022-12-05T07:03:09.498Z,6.54
2022-12-05T07:05:38.185Z,6.57
2022-12-05T07:08:49.704Z,6.57
2022-12-05T07:11:49.911Z,6.61
2022-12-05T07:17:28.735Z,6.74
2022-12-05T07:20:07.687Z,6.30
2022-12-05T07:23:14.252Z,6.38
2022-12-05T07:26:07.508Z,6.41
2022-12-05T07:29:07.110Z,6.68
2022-12-05T07:31:42.325Z,6.82
2022-12-05T07:34:50.886Z,6.79
2022-12-05T07:37:44.650Z,7.01
2022-12-05T07:40:36.674Z,6.67
2022-12-05T07:43:07.705Z,6.44
2022-12-05T07:45:51.640Z,6.26
2022-12-05T07:48:32.119Z,6.10
2022-12-05T07:51:21.343Z,6.70
2022-12-05T07:54:02.356Z,6.77
2022-12-05T07:56:36.787Z,6.87
2022-12-05T07:59:08.186Z,7.15
2022-12-05T08:01:43.804Z,7.49
2022-12-05T08:04:15.788Z,7.65
2022-12-05T08:06:44.640Z,7.78
2022-12-05T08:09:27.886Z,7.81
2022-12-05T08:11:59.662Z,7.92
2022-12-05T08:14:30.948Z,7.95
2022-12-05T08:17:00.284Z,8.14
2022-12-05T08:19:48.651Z,8.32
2022-12-05T08:22:19.093Z,8.27
2022-12-05T08:24:56.238Z,7.94
2022-12-05T08:27:24.750Z,7.70
2022-12-05T08:29:54.875Z,7.80
2022-12-05T08:32:23.062Z,7.88
2022-12-05T08:35:17.230Z,7.93
2022-12-05T08:37:55.704Z,8.08
2022-12-05T08:40:31.312Z,8.22
2022-12-05T08:43:02.122Z,8.39
2022-12-05T08:45:40.456Z,8.01
2022-12-05T08:48:09.801Z,8.19
2022-12-05T08:50:41.292Z,8.43
2022-12-05T08:53:11.983Z,8.29
2022-12-05T08:55:41.892Z,8.58
2022-12-05T08:58:18.816Z,8.63
2022-12-05T09:01:04.380Z,8.23
2022-12-05T09:03:33.229Z,7.99
2022-12-05T09:06:15.945Z,7.55
2022-12-05T09:09:04.857Z,7.82
2022-12-05T09:11:43.518Z,7.90
2022-12-05T09:14:18.824Z,8.03
2022-12-05T09:16:58.062Z,8.10
2022-12-05T09:19:42.545Z,8.16
2022-12-05T09:22:33.215Z,8.22
2022-12-05T09:25:18.957Z,8.27
2022-12-05T09:28:06.269Z,8.78
2022-12-05T09:30:52.277Z,8.67
2022-12-05T09:33:40.456Z,9.18
2022-12-05T09:36:21.038Z,9.31
2022-12-05T09:39:30.555Z,9.00
2022-12-05T09:42:33.297Z,8.58
2022-12-05T09:45:22.825Z,8.66
2022-12-05T09:48:43.714Z,8.93
2022-12-05T09:55:31.208Z,8.89
2022-12-05T09:59:33.300Z,8.98
2022-12-05T10:29:40.228Z,9.06
2022-12-05T10:56:28.308Z,9.83
2022-12-05T10:58:57.583Z,9.87
2022-12-05T11:07:34.233Z,9.79
2022-12-05T11:13:26.027Z,9.22
2022-12-05T11:16:01.065Z,9.55
2022-12-05T11:18:33.003Z,9.67
2022-12-05T11:21:19.982Z,10.12
2022-12-05T11:23:53.529Z,10.22
2022-12-05T11:26:38.684Z,10.31
2022-12-05T11:29:36.502Z,10.50
2022-12-05T11:32:21.977Z,10.71
2022-12-05T11:35:27.830Z,10.90
2022-12-05T11:38:11.485Z,11.23
2022-12-05T11:41:26.109Z,11.25
2022-12-05T11:44:38.043Z,11.14
2022-12-05T11:47:52.406Z,11.19
2022-12-05T11:51:04.483Z,10.96
2022-12-05T11:54:41.753Z,11.13
2022-12-05T11:57:39.335Z,11.11
2022-12-05T12:01:01.903Z,11.27
2022-12-05T12:04:24.588Z,11.30
2022-12-05T12:07:23.271Z,11.46
2022-12-05T12:10:22.616Z,11.62
2022-12-05T12:13:15.652Z,11.64
2022-12-05T12:16:20.173Z,11.55
2022-12-05T12:18:57.070Z,11.22
2022-12-05T12:21:57.171Z,11.05
2022-12-05T12:24:40.091Z,10.98
2022-12-05T12:28:05.556Z,10.80
2022-12-05T12:31:15.432Z,10.55
2022-12-05T12:34:17.707Z,11.17
2022-12-05T12:37:09.851Z,11.11
2022-12-05T12:40:12.137Z,11.33
2022-12-05T12:43:52.749Z,11.58
2022-12-05T12:46:37.769Z,11.80
2022-12-05T12:49:38.927Z,11.65
2022-12-05T12:52:31.571Z,11.71
2022-12-05T12:55:22.777Z,11.76
2022-12-05T12:58:26.554Z,11.57
2022-12-05T13:01:28.735Z,11.74
2022-12-05T13:04:32.568Z,11.70
2022-12-05T13:07:25.285Z,11.23
2022-12-05T13:10:01.815Z,11.26
2022-12-05T13:12:39.963Z,9.94
2022-12-05T13:15:18.216Z,10.12
2022-12-05T13:17:49.346Z,10.05
2022-12-05T13:20:23.277Z,10.13
2022-12-05T13:23:13.546Z,10.20
2022-12-05T13:26:11.849Z,10.55
2022-12-05T13:29:02.845Z,10.48
2022-12-05T13:31:40.499Z,10.26
2022-12-05T13:34:51.432Z,9.74
2022-12-05T13:37:49.976Z,9.96
2022-12-05T13:40:44.276Z,10.03
2022-12-05T13:43:16.312Z,9.83
2022-12-05T13:45:55.327Z,9.99
2022-12-05T13:48:28.456Z,9.94
2022-12-05T13:51:10.416Z,9.78
2022-12-05T13:53:58.472Z,10.24
2022-12-05T13:57:05.096Z,10.24
2022-12-05T14:00:05.962Z,9.92
2022-12-05T14:02:58.055Z,10.71
2022-12-05T14:05:42.085Z,11.14
2022-12-05T14:08:40.158Z,12.22
2022-12-05T14:11:12.117Z,11.96
2022-12-05T14:13:43.816Z,11.39
2022-12-05T14:16:29.965Z,11.21
2022-12-05T14:19:46.256Z,12.05
2022-12-05T14:22:28.034Z,12.58
2022-12-05T14:25:14.201Z,11.99
2022-12-05T14:28:42.298Z,11.62
2022-12-05T14:31:20.397Z,11.09
2022-12-05T14:34:27.651Z,10.95
2022-12-05T14:37:15.131Z,10.75
2022-12-05T14:39:51.633Z,10.21
2022-12-05T14:42:37.070Z,10.16
2022-12-05T14:45:41.122Z,10.09
2022-12-05T14:48:15.161Z,10.02
2022-12-05T14:50:53.432Z,10.16
2022-12-05T14:53:21.548Z,10.01
2022-12-05T14:55:55.384Z,9.58
2022-12-05T14:58:32.936Z,9.68
2022-12-05T15:01:09.285Z,9.83
2022-12-05T15:03:42.521Z,9.78
2022-12-05T15:06:16.200Z,9.78
2022-12-05T15:09:21.114Z,9.75
2022-12-05T15:11:49.151Z,9.70
2022-12-05T15:14:31.323Z,9.80
2022-12-05T15:17:03.590Z,9.82
2022-12-05T15:19:44.863Z,9.96
2022-12-05T15:22:22.850Z,9.92
2022-12-05T15:24:51.032Z,9.95
2022-12-05T15:27:18.876Z,9.79
2022-12-05T15:29:46.872Z,9.71
2022-12-05T15:32:25.454Z,9.74
2022-12-05T15:35:09.822Z,9.39
2022-12-05T15:37:57.247Z,9.51
2022-12-05T15:40:38.480Z,9.60
2022-12-05T15:43:34.143Z,9.48
2022-12-05T15:46:27.580Z,9.34
2022-12-05T15:49:08.567Z,9.31
2022-12-05T15:51:53.240Z,9.16
2022-12-05T15:54:58.431Z,9.07
2022-12-05T15:57:37.803Z,8.98
2022-12-05T16:00:19.774Z,8.93
2022-12-05T16:03:24.351Z,8.86
2022-12-05T16:06:05.237Z,8.85
2022-12-05T16:08:59.832Z,8.86
2022-12-05T16:11:28.076Z,8.86
2022-12-05T16:14:00.872Z,8.78
2022-12-05T16:16:34.426Z,8.80
2022-12-05T16:19:24.033Z,8.75
2022-12-05T16:22:22.747Z,8.78
2022-12-05T16:25:06.121Z,8.74
2022-12-05T16:27:38.990Z,8.74
2022-12-05T16:30:22.048Z,8.65
2022-12-05T16:33:36.654Z,8.65
2022-12-05T16:36:12.632Z,8.44
2022-12-05T16:38:45.857Z,8.48
2022-12-05T16:41:19.453Z,8.54
2022-12-05T16:43:47.712Z,8.56
2022-12-05T16:46:15.683Z,8.58
2022-12-05T16:49:51.800Z,8.60
2022-12-05T16:52:27.408Z,8.54
2022-12-05T16:54:57.659Z,8.52
2022-12-05T16:57:25.748Z,8.56
2022-12-05T16:59:57.539Z,8.44
2022-12-05T17:02:40.255Z,8.50
2022-12-05T17:05:17.409Z,8.42
2022-12-05T17:07:55.839Z,8.47
2022-12-05T17:10:29.172Z,8.46
2022-12-05T17:13:03.250Z,8.46
2022-12-05T17:15:32.667Z,8.44
2022-12-05T17:18:12.171Z,8.24
2022-12-05T17:20:45.512Z,8.24
2022-12-05T17:23:21.350Z,8.26
2022-12-05T17:26:00.751Z,7.32
2022-12-05T17:28:31.111Z,7.28
2022-12-05T17:31:02.172Z,7.60
2022-12-05T17:33:30.113Z,7.22
2022-12-05T17:36:01.023Z,7.10
2022-12-05T17:38:31.269Z,7.42
2022-12-05T17:41:06.742Z,7.56
2022-12-05T17:43:34.926Z,7.50
2022-12-05T17:46:03.440Z,7.67
2022-12-05T17:48:32.434Z,7.63
2022-12-05T17:51:15.540Z,7.79
2022-12-05T17:54:30.562Z,7.85
2022-12-05T17:57:25.208Z,8.02
2022-12-05T18:00:22.413Z,7.96
2022-12-05T18:03:07.886Z,8.07
2022-12-05T18:06:01.516Z,8.04
2022-12-05T18:08:41.483Z,8.10
2022-12-05T18:11:22.512Z,7.91
2022-12-05T18:13:51.625Z,7.46
2022-12-05T18:16:32.338Z,7.46
2022-12-05T18:22:44.600Z,7.77
2022-12-05T18:26:04.090Z,7.90
2022-12-05T18:29:00.688Z,7.78
2022-12-05T18:34:52.380Z,7.71
2022-12-05T18:37:32.389Z,7.91
2022-12-05T18:40:31.828Z,8.05
2022-12-05T18:44:17.620Z,8.01
2022-12-05T18:47:33.876Z,7.99
2022-12-05T18:53:53.368Z,8.06
2022-12-05T19:28:55.471Z,7.96
2022-12-05T19:32:02.242Z,7.86
2022-12-05T19:35:11.730Z,7.93
2022-12-05T19:41:53.538Z,7.89
2022-12-05T19:45:16.402Z,7.84
2022-12-05T19:48:14.479Z,7.84
2022-12-05T19:51:12.811Z,7.64
2022-12-05T19:57:14.880Z,7.71
2022-12-05T20:01:36.203Z,7.72
2022-12-05T20:02:54.183Z,7.50
2022-12-05T20:05:42.207Z,6.41
2022-12-05T20:08:23.920Z,6.47
2022-12-05T20:10:54.829Z,6.93
2022-12-05T20:13:48.470Z,6.96
2022-12-05T20:18:18.337Z,7.18
2022-12-05T20:19:48.569Z,7.01
2022-12-05T20:22:48.076Z,6.64
2022-12-05T20:25:22.305Z,7.03
2022-12-05T20:28:05.612Z,7.31
2022-12-05T20:31:14.801Z,7.50
2022-12-05T20:37:41.580Z,7.77
2022-12-05T20:40:34.817Z,7.77
2022-12-05T20:43:54.946Z,7.54
2022-12-05T20:46:59.776Z,7.77
2022-12-05T20:53:18.575Z,7.75
2022-12-05T20:55:51.983Z,7.81
2022-12-05T20:58:24.813Z,7.88
2022-12-05T21:09:43.099Z,7.92
2022-12-05T21:14:25.391Z,7.78
2022-12-05T21:21:37.187Z,7.49
2022-12-05T21:26:49.133Z,7.58
2022-12-05T21:31:00.328Z,7.44
2022-12-05T22:14:57.866Z,7.98
2022-12-05T22:18:08.789Z,8.08
2022-12-05T22:30:59.672Z,8.05
2022-12-05T22:38:59.742Z,8.07
2022-12-05T23:02:21.979Z,6.92
2022-12-05T23:04:49.636Z,6.86
2022-12-05T23:07:17.513Z,7.06
2022-12-05T23:09:45.700Z,7.15
2022-12-05T23:12:13.312Z,7.26
2022-12-05T23:14:40.903Z,7.25
2022-12-05T23:17:08.515Z,7.19
2022-12-05T23:19:36.069Z,7.31
2022-12-05T23:22:03.745Z,7.25
2022-12-05T23:24:31.351Z,7.21
2022-12-05T23:26:58.958Z,7.31
2022-12-05T23:29:26.523Z,7.40
2022-12-05T23:31:54.340Z,7.33
2022-12-05T23:34:22.042Z,7.35
2022-12-05T23:36:49.698Z,7.42
2022-12-05T23:39:17.286Z,7.48
2022-12-05T23:41:46.595Z,7.53
2022-12-05T23:44:14.173Z,7.29
2022-12-05T23:46:41.801Z,7.42
2022-12-05T23:49:09.604Z,7.51
2022-12-05T23:51:40.081Z,7.55
2022-12-05T23:54:10.621Z,7.52
2022-12-05T23:56:39.215Z,7.44
2022-12-05T23:59:08.535Z,7.39
